createdAt,value
2022-09-30T00:26:58.791Z,10.40
2022-09-30T00:29:26.037Z,10.40
2022-09-30T00:31:53.388Z,10.90
2022-09-30T00:34:20.779Z,10.40
2022-09-30T00:36:50.092Z,10.30
2022-09-30T00:39:22.742Z,10.30
2022-09-30T00:41:53.350Z,10.30
2022-09-30T00:57:50.791Z,10.40
2022-09-30T01:00:18.093Z,10.30
2022-09-30T01:02:47.211Z,10.30
2022-09-30T01:05:14.570Z,10.30
2022-09-30T01:07:42.081Z,10.30
2022-09-30T01:10:09.499Z,10.30
2022-09-30T01:12:36.453Z,10.30
2022-09-30T02:10:59.053Z,10.20
2022-09-30T02:13:35.486Z,10.40
2022-09-30T02:16:12.181Z,10.30
2022-09-30T02:18:51.850Z,12.30
2022-09-30T02:21:27.266Z,10.30
2022-09-30T02:24:00.226Z,10.30
2022-09-30T03:05:29.033Z,10.20
2022-09-30T03:07:56.919Z,10.20
2022-09-30T03:10:24.345Z,10.20
2022-09-30T03:13:06.617Z,9.70
2022-09-30T03:15:45.851Z,11.10
2022-09-30T03:18:36.037Z,10.20
2022-09-30T03:37:38.467Z,8.80
2022-09-30T03:40:17.092Z,10.10
2022-09-30T03:42:54.757Z,10.10
2022-09-30T03:45:35.003Z,10.10
2022-09-30T03:48:06.574Z,10.10
2022-09-30T03:50:36.551Z,11.20
2022-09-30T04:21:28.306Z,10.00
2022-09-30T04:23:56.023Z,10.00
2022-09-30T04:26:23.067Z,10.00
2022-09-30T04:28:50.976Z,10.00
2022-09-30T04:31:18.991Z,10.00
2022-09-30T04:33:46.234Z,10.00
2022-09-30T04:36:12.997Z,10.00
2022-09-30T04:42:56.521Z,10.00
2022-09-30T04:45:24.402Z,10.00
2022-09-30T04:47:51.301Z,10.00
2022-09-30T04:50:18.346Z,10.00
2022-09-30T04:52:45.067Z,9.50
2022-09-30T04:55:11.739Z,10.00
2022-09-30T04:57:38.697Z,10.10
2022-09-30T05:00:08.834Z,10.10
2022-09-30T05:18:01.566Z,10.00
2022-09-30T05:20:28.622Z,10.30
2022-09-30T05:22:56.117Z,10.20
2022-09-30T05:25:23.420Z,10.20
2022-09-30T05:27:50.780Z,10.20
2022-09-30T05:30:17.709Z,10.20
2022-09-30T05:32:45.429Z,10.10
2022-09-30T05:40:14.890Z,10.50
2022-09-30T05:42:41.758Z,10.10
2022-09-30T05:45:08.751Z,10.10
2022-09-30T05:47:35.705Z,10.10
2022-09-30T05:50:02.392Z,10.10
2022-09-30T05:52:29.480Z,10.10
2022-09-30T05:54:58.540Z,10.10
2022-09-30T06:02:25.939Z,10.00
2022-09-30T06:04:53.216Z,10.20
2022-09-30T06:07:20.481Z,10.20
2022-09-30T06:09:47.122Z,10.10
2022-09-30T06:12:14.238Z,10.40
2022-09-30T06:14:41.326Z,10.20
2022-09-30T06:17:08.259Z,11.40
2022-09-30T06:24:12.601Z,10.30
2022-09-30T06:26:39.336Z,10.40
2022-09-30T06:29:06.063Z,10.40
2022-09-30T06:31:32.740Z,10.40
2022-09-30T06:34:01.180Z,10.40
2022-09-30T06:36:32.933Z,10.40
2022-09-30T06:39:01.223Z,10.40
2022-09-30T06:46:40.983Z,10.30
2022-09-30T06:49:22.675Z,10.30
2022-09-30T06:51:50.732Z,10.30
2022-09-30T06:54:20.010Z,10.30
2022-09-30T06:56:48.254Z,10.40
2022-09-30T06:59:18.033Z,10.40
2022-09-30T07:01:44.927Z,10.40
2022-09-30T07:09:14.037Z,11.70
2022-09-30T07:11:42.324Z,10.50
2022-09-30T07:14:09.865Z,10.50
2022-09-30T07:16:38.433Z,10.50
2022-09-30T07:19:09.648Z,10.60
2022-09-30T07:21:36.831Z,10.60
2022-09-30T07:24:03.903Z,10.70
2022-09-30T07:31:35.805Z,10.60
2022-09-30T07:34:06.643Z,10.70
2022-09-30T07:36:35.020Z,10.70
2022-09-30T07:39:04.766Z,10.70
2022-09-30T07:41:32.089Z,10.70
2022-09-30T07:43:59.276Z,10.70
2022-09-30T07:46:29.959Z,10.70
2022-09-30T07:53:33.221Z,10.70
2022-09-30T07:56:05.700Z,11.20
2022-09-30T07:58:32.833Z,10.70
2022-09-30T08:01:00.140Z,10.70
2022-09-30T08:03:27.041Z,10.70
2022-09-30T08:05:54.892Z,12.60
2022-09-30T08:08:21.698Z,10.80
2022-09-30T08:26:18.024Z,10.90
2022-09-30T08:28:49.035Z,11.40
2022-09-30T08:31:21.383Z,11.50
2022-09-30T08:33:49.279Z,11.60
2022-09-30T08:36:24.416Z,11.80
2022-09-30T08:38:51.906Z,11.90
2022-09-30T08:41:37.246Z,12.10
2022-09-30T08:50:34.619Z,12.50
2022-09-30T08:53:11.212Z,12.80
2022-09-30T08:55:43.526Z,13.30
2022-09-30T08:58:27.416Z,13.50
2022-09-30T09:01:20.372Z,13.70
2022-09-30T09:03:47.676Z,13.70
2022-09-30T09:12:48.655Z,14.50
2022-09-30T09:15:56.318Z,13.70
2022-09-30T09:18:38.371Z,13.80
2022-09-30T09:21:14.672Z,13.90
2022-09-30T09:23:42.187Z,13.90
2022-09-30T09:26:19.265Z,14.00
2022-09-30T09:28:55.091Z,14.00
2022-09-30T09:45:46.096Z,13.90
2022-09-30T09:48:15.180Z,14.00
2022-09-30T09:50:45.113Z,14.00
2022-09-30T09:53:26.040Z,14.00
2022-09-30T09:55:59.657Z,14.00
2022-09-30T09:58:26.724Z,14.00
2022-09-30T10:01:10.718Z,14.00
2022-09-30T10:08:57.355Z,13.90
2022-09-30T10:11:27.111Z,14.40
2022-09-30T10:13:59.992Z,13.70
2022-09-30T10:16:37.924Z,13.60
2022-09-30T10:19:25.017Z,13.60
2022-09-30T10:22:17.661Z,13.80
2022-09-30T10:24:44.610Z,13.80
2022-09-30T10:30:09.716Z,13.90
2022-09-30T10:32:36.642Z,13.90
2022-09-30T10:35:22.322Z,14.00
2022-09-30T10:37:57.652Z,14.10
2022-09-30T10:40:28.019Z,14.00
2022-09-30T10:42:56.126Z,13.90
2022-09-30T10:45:29.440Z,14.00
2022-09-30T10:53:16.754Z,14.90
2022-09-30T10:55:45.258Z,14.80
2022-09-30T10:58:42.821Z,14.70
2022-09-30T11:01:24.073Z,14.90
2022-09-30T11:04:15.898Z,14.80
2022-09-30T11:06:45.947Z,14.70
2022-09-30T11:15:44.786Z,14.70
2022-09-30T11:18:16.361Z,14.80
2022-09-30T11:20:55.537Z,14.80
2022-09-30T11:23:31.253Z,14.90
2022-09-30T11:26:18.017Z,15.20
2022-09-30T11:29:19.403Z,15.50
2022-09-30T11:37:46.058Z,15.80
2022-09-30T11:40:31.187Z,15.30
2022-09-30T11:43:19.646Z,16.00
2022-09-30T11:46:17.578Z,16.50
2022-09-30T11:49:26.538Z,16.80
2022-09-30T11:52:30.723Z,16.90
2022-09-30T12:00:18.244Z,17.20
2022-09-30T12:02:55.676Z,17.30
2022-09-30T12:05:38.984Z,17.20
2022-09-30T12:08:19.896Z,17.00
2022-09-30T12:10:54.702Z,16.90
2022-09-30T12:13:43.405Z,16.80
2022-09-30T12:19:50.634Z,16.50
2022-09-30T12:22:38.992Z,16.30
2022-09-30T12:25:31.637Z,16.30
2022-09-30T12:28:49.146Z,16.30
2022-09-30T12:31:25.167Z,16.40
2022-09-30T12:34:22.378Z,16.60
2022-09-30T12:36:58.580Z,16.80
2022-09-30T12:44:52.139Z,16.50
2022-09-30T12:47:30.766Z,16.50
2022-09-30T12:49:59.563Z,16.30
2022-09-30T12:52:33.128Z,16.10
2022-09-30T12:55:09.348Z,16.10
2022-09-30T12:57:41.761Z,16.20
2022-09-30T13:06:05.957Z,15.90
2022-09-30T13:08:45.481Z,15.60
2022-09-30T13:11:32.765Z,15.50
2022-09-30T13:14:34.794Z,15.40
2022-09-30T13:17:07.515Z,15.20
2022-09-30T13:19:44.084Z,15.10
2022-09-30T13:22:28.948Z,14.80
2022-09-30T13:30:34.447Z,15.10
2022-09-30T13:33:01.887Z,15.10
2022-09-30T13:35:37.249Z,15.00
2022-09-30T13:38:13.179Z,15.10
2022-09-30T13:41:02.354Z,15.30
2022-09-30T13:43:56.012Z,15.40
2022-09-30T13:49:46.021Z,15.50
2022-09-30T13:52:24.117Z,15.40
2022-09-30T13:54:54.441Z,15.40
2022-09-30T13:57:32.826Z,15.50
2022-09-30T14:00:08.176Z,15.50
2022-09-30T14:02:41.118Z,15.50
2022-09-30T14:05:26.604Z,15.60
2022-09-30T14:11:30.308Z,14.50
2022-09-30T14:14:18.786Z,16.00
2022-09-30T14:17:19.835Z,14.90
2022-09-30T14:20:24.875Z,16.20
2022-09-30T14:22:52.846Z,16.20
2022-09-30T14:25:21.022Z,16.20
2022-09-30T14:31:15.917Z,16.00
2022-09-30T14:33:47.196Z,16.00
2022-09-30T14:36:18.420Z,16.00
2022-09-30T14:38:56.755Z,16.00
2022-09-30T14:41:25.726Z,16.00
2022-09-30T14:43:57.061Z,16.00
2022-09-30T14:46:59.818Z,16.10
2022-09-30T14:53:38.917Z,16.00
2022-09-30T14:56:21.662Z,16.80
2022-09-30T14:58:52.908Z,15.80
2022-09-30T15:01:25.299Z,15.60
2022-09-30T15:04:13.685Z,15.50
2022-09-30T15:06:46.267Z,15.40
2022-09-30T15:15:31.838Z,15.10
2022-09-30T15:17:58.720Z,15.00
2022-09-30T15:20:33.401Z,14.90
2022-09-30T15:23:06.352Z,14.80
2022-09-30T15:25:33.468Z,14.80
2022-09-30T15:28:00.869Z,14.70
2022-09-30T23:56:15.072Z,10.50
2022-09-30T23:58:43.277Z,10.60
